Time;durP1;ratioP1;P1;durP2;ratioP2;P2;SDS_P1;SDS_P2;PMS_P1;PMS_P2;Temp;Humidity;BMP_temperature;BMP_pressure;BME280_temperature;BME280_humidity;BME280_pressure;Samples;Min_cycle;Max_cycle;Signal;HPM_P1;HPM_P2
2022/04/06 00:00:21;;;;;;;33.83;21.90;;;9.50;99.90;;;;;;5003819;28;20046;-72
2022/04/06 00:02:47;;;;;;;32.60;22.30;;;9.50;99.90;;;;;;5000492;28;20133;-72
2022/04/06 00:05:12;;;;;;;36.35;22.48;;;9.50;99.90;;;;;;5004087;28;20140;-72
2022/04/06 00:07:39;;;;;;;35.33;22.50;;;9.50;99.90;;;;;;5002945;28;20050;-72
2022/04/06 00:10:07;;;;;;;33.55;23.13;;;9.50;99.90;;;;;;5000217;28;20133;-72
2022/04/06 00:12:37;;;;;;;34.45;22.85;;;9.50;99.90;;;;;;5000284;28;20121;-72
2022/04/06 00:15:05;;;;;;;35.60;23.17;;;9.50;99.90;;;;;;4995646;28;20430;-72
2022/04/06 00:17:31;;;;;;;38.00;23.00;;;9.50;99.90;;;;;;4998232;28;20486;-71
2022/04/06 00:19:57;;;;;;;31.90;21.40;;;9.50;99.90;;;;;;5004160;28;20049;-72
2022/04/06 00:22:22;;;;;;;32.78;20.70;;;9.50;99.90;;;;;;5001104;28;20077;-72
2022/04/06 00:24:51;;;;;;;35.05;22.17;;;9.50;99.90;;;;;;4997156;28;20042;-72
2022/04/06 00:27:18;;;;;;;34.47;20.55;;;9.50;99.90;;;;;;5004434;28;20121;-72
2022/04/06 00:29:43;;;;;;;30.08;21.25;;;9.50;99.90;;;;;;5002891;28;20054;-72
2022/04/06 00:32:10;;;;;;;39.10;21.77;;;9.50;99.90;;;;;;5004574;28;20091;-72
2022/04/06 00:37:19;;;;;;;33.70;19.73;;;9.50;99.90;;;;;;4997319;28;20050;-72
2022/04/06 00:39:45;;;;;;;34.88;21.27;;;9.50;99.90;;;;;;5005177;28;20120;-72
2022/04/06 00:42:11;;;;;;;33.45;19.85;;;9.50;99.90;;;;;;5000476;28;20064;-72
2022/04/06 00:44:37;;;;;;;35.22;20.77;;;9.50;99.90;;;;;;5007491;28;20552;-72
2022/04/06 00:47:04;;;;;;;34.88;20.65;;;9.60;99.90;;;;;;5003735;28;20038;-72
2022/04/06 00:49:30;;;;;;;31.10;19.20;;;9.50;99.90;;;;;;5006823;28;20397;-71
2022/04/06 00:52:01;;;;;;;35.22;19.85;;;9.50;99.90;;;;;;5005403;28;20034;-72
2022/04/06 00:54:29;;;;;;;36.40;19.80;;;9.50;99.90;;;;;;5007158;28;20041;-71
2022/04/06 00:56:54;;;;;;;36.95;19.70;;;9.50;99.90;;;;;;5008152;28;20034;-71
2022/04/06 00:59:20;;;;;;;34.67;18.90;;;9.50;99.90;;;;;;5000341;28;20042;-71
2022/04/06 01:01:48;;;;;;;34.28;19.17;;;9.50;99.90;;;;;;5005157;28;20042;-72
2022/04/06 01:04:14;;;;;;;;;;;9.50;99.90;;;;;;5008868;28;20050;-72
2022/04/06 01:06:44;;;;;;;33.67;17.87;;;9.50;99.90;;;;;;4999250;28;19917;-71
2022/04/06 01:09:10;;;;;;;32.72;18.27;;;9.50;99.90;;;;;;5003371;28;20355;-72
2022/04/06 01:11:36;;;;;;;30.38;17.85;;;9.50;99.90;;;;;;5007718;28;20069;-72
2022/04/06 01:14:02;;;;;;;31.38;17.13;;;9.50;99.90;;;;;;5003159;28;20073;-71
2022/04/06 01:16:29;;;;;;;29.60;16.90;;;9.50;99.90;;;;;;5005480;28;20037;-72
2022/04/06 01:18:55;;;;;;;28.20;17.13;;;9.50;99.90;;;;;;5000003;28;20049;-72
2022/04/06 01:21:21;;;;;;;32.45;17.40;;;9.50;99.90;;;;;;5003245;28;20038;-72
2022/04/06 01:23:47;;;;;;;31.35;16.85;;;9.50;99.90;;;;;;5001655;28;20712;-72
2022/04/06 01:26:13;;;;;;;30.70;17.08;;;9.50;99.90;;;;;;5011756;28;20081;-72
2022/04/06 01:28:40;;;;;;;30.30;16.33;;;9.50;99.90;;;;;;5000782;28;20492;-71
2022/04/06 01:31:07;;;;;;;30.05;15.88;;;9.50;99.90;;;;;;5004371;28;20041;-72
2022/04/06 01:33:32;;;;;;;30.42;16.20;;;9.50;99.90;;;;;;5002936;28;20102;-72
2022/04/06 01:35:59;;;;;;;29.05;16.00;;;9.50;99.90;;;;;;5006294;28;20053;-72
2022/04/06 01:38:25;;;;;;;29.85;15.90;;;9.50;99.90;;;;;;5004352;28;20045;-72
2022/04/06 01:40:52;;;;;;;28.83;14.55;;;9.50;99.90;;;;;;5004375;28;20141;-72
2022/04/06 01:43:17;;;;;;;35.75;16.13;;;9.50;99.90;;;;;;5003796;28;20046;-72
2022/04/06 01:45:43;;;;;;;29.65;15.18;;;9.50;99.90;;;;;;5006957;28;20054;-72
2022/04/06 01:48:09;;;;;;;25.77;14.85;;;9.50;99.90;;;;;;5007824;28;20041;-72
2022/04/06 01:53:19;;;;;;;27.60;14.45;;;9.50;99.90;;;;;;5005821;28;20041;-72
2022/04/06 01:55:44;;;;;;;26.42;15.25;;;9.50;99.90;;;;;;5006553;28;20052;-72
2022/04/06 01:58:10;;;;;;;31.52;15.02;;;9.50;99.90;;;;;;5007006;28;20419;-71
2022/04/06 02:00:35;;;;;;;25.83;14.57;;;9.50;99.90;;;;;;5005080;28;20556;-71
2022/04/06 02:03:01;;;;;;;30.95;15.35;;;9.50;99.90;;;;;;5016508;28;20054;-72
2022/04/06 02:05:32;;;;;;;30.45;15.10;;;9.40;99.90;;;;;;5003118;28;20046;-71
2022/04/06 02:07:59;;;;;;;27.48;13.57;;;9.50;99.90;;;;;;5005393;28;20057;-72
2022/04/06 02:10:25;;;;;;;27.63;15.05;;;9.50;99.90;;;;;;5005462;28;21710;-72
2022/04/06 02:12:55;;;;;;;30.25;13.38;;;9.50;99.90;;;;;;5009415;28;20500;-72
2022/04/06 02:15:21;;;;;;;25.20;13.38;;;9.50;99.90;;;;;;5002838;28;20057;-72
2022/04/06 02:17:47;;;;;;;23.70;12.85;;;9.50;99.90;;;;;;5003176;28;20049;-72
2022/04/06 02:20:14;;;;;;;31.63;13.30;;;9.50;99.90;;;;;;5014469;28;20057;-72
2022/04/06 02:22:43;;;;;;;23.60;12.32;;;9.50;99.90;;;;;;5003186;28;20160;-71
2022/04/06 02:25:10;;;;;;;24.25;11.18;;;9.50;99.90;;;;;;5004139;28;20046;-71
2022/04/06 02:27:45;;;;;;;25.05;11.95;;;9.50;99.90;;;;;;5004503;28;20050;-71
2022/04/06 02:30:11;;;;;;;24.73;11.85;;;9.50;99.90;;;;;;5005290;28;20111;-72
2022/04/06 02:32:37;;;;;;;24.20;11.80;;;9.50;99.90;;;;;;5003819;28;20659;-72
2022/04/06 02:35:02;;;;;;;24.70;11.75;;;9.50;99.90;;;;;;5008794;28;20092;-72
2022/04/06 02:37:28;;;;;;;23.73;11.32;;;9.50;99.90;;;;;;5001970;28;20392;-72
2022/04/06 02:39:53;;;;;;;24.90;11.70;;;9.50;99.90;;;;;;5006699;28;20049;-71
2022/04/06 02:42:22;;;;;;;26.00;11.30;;;9.50;99.90;;;;;;5005286;28;20128;-71
2022/04/06 02:44:47;;;;;;;27.17;11.70;;;9.50;99.90;;;;;;5003672;28;20140;-71
2022/04/06 02:47:13;;;;;;;25.05;11.65;;;9.50;99.90;;;;;;5004684;28;20053;-72
2022/04/06 02:49:39;;;;;;;22.02;11.57;;;9.50;99.90;;;;;;5004567;28;20537;-72
2022/04/06 02:52:05;;;;;;;25.42;12.00;;;9.50;99.90;;;;;;5001587;28;20034;-72
2022/04/06 02:54:30;;;;;;;26.63;12.02;;;9.50;99.90;;;;;;5003534;28;20397;-72
2022/04/06 02:56:56;;;;;;;23.88;12.15;;;9.50;99.90;;;;;;5012819;28;20049;-72
2022/04/06 02:59:21;;;;;;;28.20;13.40;;;9.50;99.90;;;;;;5006886;28;20102;-72
2022/04/06 03:01:47;;;;;;;30.48;12.23;;;9.50;99.90;;;;;;5006247;28;20046;-72
2022/04/06 03:04:12;;;;;;;25.20;12.77;;;9.50;99.90;;;;;;5006407;28;20042;-72
2022/04/06 03:06:39;;;;;;;25.05;12.82;;;9.50;99.90;;;;;;4998566;28;20076;-72
2022/04/06 03:09:05;;;;;;;27.00;12.88;;;9.50;99.90;;;;;;5002997;28;20049;-72
2022/04/06 03:11:30;;;;;;;26.75;13.35;;;9.50;99.90;;;;;;5002219;28;20389;-72
2022/04/06 03:13:56;;;;;;;25.10;13.60;;;9.50;99.90;;;;;;5005728;28;20435;-72
2022/04/06 03:16:21;;;;;;;30.65;14.25;;;9.50;99.90;;;;;;5005132;28;20059;-72
2022/04/06 03:18:47;;;;;;;30.65;14.55;;;9.50;99.90;;;;;;5002595;28;20049;-72
2022/04/06 03:21:13;;;;;;;28.67;14.75;;;9.50;99.90;;;;;;5006928;28;20672;-72
2022/04/06 03:23:38;;;;;;;34.20;15.40;;;9.50;99.90;;;;;;5000004;28;20056;-72
2022/04/06 03:26:04;;;;;;;29.25;14.95;;;9.50;99.90;;;;;;4996333;28;20053;-72
2022/04/06 03:28:30;;;;;;;27.83;15.77;;;9.50;99.90;;;;;;5005767;28;20042;-72
2022/04/06 03:30:55;;;;;;;26.50;15.05;;;9.50;99.90;;;;;;5005524;28;20045;-72
2022/04/06 03:33:21;;;;;;;29.60;16.00;;;9.50;99.90;;;;;;5005503;28;20046;-73
2022/04/06 03:35:47;;;;;;;31.17;16.13;;;9.50;99.90;;;;;;5004960;28;20034;-72
2022/04/06 03:38:13;;;;;;;34.35;17.85;;;9.50;99.90;;;;;;5004245;28;20044;-73
2022/04/06 03:40:38;;;;;;;30.77;17.40;;;9.50;99.90;;;;;;5003765;28;20037;-73
2022/04/06 03:43:04;;;;;;;30.90;18.10;;;9.50;99.90;;;;;;5004515;28;20038;-72
2022/04/06 03:45:29;;;;;;;33.15;19.02;;;9.50;99.90;;;;;;5004771;28;20593;-72
2022/04/06 03:47:55;;;;;;;35.17;20.10;;;9.50;99.90;;;;;;5006600;28;20042;-73
2022/04/06 03:50:21;;;;;;;32.28;19.67;;;9.50;99.90;;;;;;5105961;27;20634;-73
2022/04/06 03:52:46;;;;;;;35.95;20.17;;;9.50;99.90;;;;;;5003004;28;20858;-72
2022/04/06 03:55:12;;;;;;;36.38;21.08;;;9.50;99.90;;;;;;4999532;28;20049;-72
2022/04/06 03:57:38;;;;;;;36.78;20.58;;;9.50;99.90;;;;;;5006120;28;20481;-72
2022/04/06 04:00:07;;;;;;;34.90;20.50;;;9.50;99.90;;;;;;5004211;28;20545;-72
2022/04/06 04:02:34;;;;;;;33.97;20.10;;;9.50;99.90;;;;;;5012747;28;20066;-73
2022/04/06 04:05:00;;;;;;;30.33;19.33;;;9.50;99.90;;;;;;5005991;28;20075;-72
2022/04/06 04:07:26;;;;;;;35.13;20.03;;;9.50;99.90;;;;;;5005632;28;20049;-71
2022/04/06 04:09:52;;;;;;;31.92;20.10;;;9.50;99.90;;;;;;5106757;27;20038;-71
2022/04/06 04:12:17;;;;;;;34.95;20.23;;;9.50;99.90;;;;;;5005746;28;20049;-71
2022/04/06 04:14:45;;;;;;;35.50;19.70;;;9.50;99.90;;;;;;5003005;28;20534;-72
2022/04/06 04:17:10;;;;;;;32.92;18.85;;;9.50;99.90;;;;;;5004254;28;20049;-72
2022/04/06 04:19:36;;;;;;;31.17;19.33;;;9.50;99.90;;;;;;5007198;28;20048;-72
2022/04/06 04:22:02;;;;;;;31.25;19.00;;;9.50;99.90;;;;;;5004567;28;20427;-72
2022/04/06 04:24:28;;;;;;;32.30;18.35;;;9.50;99.90;;;;;;5011844;28;20045;-72
2022/04/06 04:26:54;;;;;;;29.65;17.98;;;9.50;99.90;;;;;;5011434;28;20124;-72
2022/04/06 04:29:20;;;;;;;33.42;18.13;;;9.50;99.90;;;;;;5004016;28;20045;-72
2022/04/06 04:31:46;;;;;;;29.90;18.58;;;9.50;99.90;;;;;;5008358;28;20041;-71
2022/04/06 04:34:12;;;;;;;28.35;17.25;;;9.50;99.90;;;;;;5003222;28;20068;-71
2022/04/06 04:36:37;;;;;;;32.38;17.27;;;9.50;99.90;;;;;;5004324;28;20053;-72
2022/04/06 04:39:04;;;;;;;28.05;16.60;;;9.50;99.90;;;;;;5004366;28;20037;-72
2022/04/06 04:41:29;;;;;;;33.60;16.60;;;9.50;99.90;;;;;;5004665;28;20452;-72
2022/04/06 04:43:55;;;;;;;30.17;15.98;;;9.50;99.90;;;;;;5004825;28;20045;-72
2022/04/06 04:46:21;;;;;;;30.77;15.85;;;9.50;99.90;;;;;;5004363;28;20049;-72
2022/04/06 04:48:47;;;;;;;27.88;16.42;;;9.50;99.90;;;;;;5106505;28;20196;-72
2022/04/06 04:51:13;;;;;;;31.02;16.70;;;9.50;99.90;;;;;;5015207;28;20503;-72
2022/04/06 04:53:39;;;;;;;26.85;15.13;;;9.50;99.90;;;;;;5002191;28;20147;-72
2022/04/06 04:56:05;;;;;;;25.27;15.68;;;9.50;99.90;;;;;;5004123;28;20030;-72
2022/04/06 04:58:33;;;;;;;27.40;15.38;;;9.50;99.90;;;;;;5001695;28;20049;-72
2022/04/06 05:00:59;;;;;;;26.27;15.20;;;9.50;99.90;;;;;;5015407;28;20069;-72
2022/04/06 05:03:25;;;;;;;27.38;15.88;;;9.50;99.90;;;;;;5005363;28;20114;-72
2022/04/06 05:05:53;;;;;;;27.55;15.88;;;9.50;99.90;;;;;;5006354;28;20035;-72
2022/04/06 05:08:20;;;;;;;28.45;14.93;;;9.50;99.90;;;;;;5006485;28;20052;-71
2022/04/06 05:10:46;;;;;;;23.85;14.32;;;9.50;99.90;;;;;;5007545;28;20060;-72
2022/04/06 05:13:13;;;;;;;25.77;14.98;;;9.50;99.90;;;;;;5006821;28;20046;-72
2022/04/06 05:15:39;;;;;;;26.92;14.98;;;9.50;99.90;;;;;;5007349;28;20100;-72
2022/04/06 05:18:05;;;;;;;22.60;13.38;;;9.40;99.90;;;;;;5007400;28;20064;-72
2022/04/06 05:20:31;;;;;;;23.20;13.73;;;9.50;99.90;;;;;;5005632;28;20050;-72
2022/04/06 05:22:56;;;;;;;21.50;12.77;;;9.40;99.90;;;;;;5009385;28;20123;-73
2022/04/06 05:25:25;;;;;;;22.05;12.93;;;9.40;99.90;;;;;;5006746;28;20489;-72
2022/04/06 05:27:53;;;;;;;25.95;13.10;;;9.50;99.90;;;;;;5006560;28;20038;-72
2022/04/06 05:30:19;;;;;;;;;;;9.40;99.90;;;;;;5010278;28;20124;-72
2022/04/06 05:32:46;;;;;;;24.63;11.98;;;9.40;99.90;;;;;;5028174;28;20390;-72
2022/04/06 05:35:13;;;;;;;24.33;11.60;;;9.40;99.90;;;;;;5010189;28;20601;-71
2022/04/06 05:37:43;;;;;;;21.67;11.20;;;9.40;99.90;;;;;;5021401;28;20077;-72
2022/04/06 05:40:11;;;;;;;23.52;11.15;;;9.40;99.90;;;;;;5002619;28;20054;-73
2022/04/06 05:42:36;;;;;;;;;;;9.40;99.90;;;;;;5006684;28;20435;-72
2022/04/06 05:45:04;;;;;;;24.13;10.98;;;9.40;99.90;;;;;;5004577;28;19925;-72
2022/04/06 05:47:29;;;;;;;18.45;9.88;;;9.40;99.90;;;;;;5014194;28;20532;-72
2022/04/06 05:49:55;;;;;;;21.65;9.98;;;9.40;99.90;;;;;;5006031;28;20149;-72
2022/04/06 05:52:21;;;;;;;21.05;9.77;;;9.40;99.90;;;;;;5008360;28;20049;-72
2022/04/06 05:54:46;;;;;;;16.90;9.13;;;9.40;99.90;;;;;;5005137;28;20528;-72
2022/04/06 05:57:12;;;;;;;15.10;8.52;;;9.40;99.90;;;;;;5006663;28;20074;-73
2022/04/06 05:59:39;;;;;;;15.30;7.88;;;9.40;99.90;;;;;;5006947;28;20096;-72
2022/04/06 06:02:05;;;;;;;15.35;7.43;;;9.40;99.90;;;;;;5006198;28;20103;-72
2022/04/06 06:04:33;;;;;;;15.07;7.28;;;9.40;99.90;;;;;;5026755;28;20480;-72
2022/04/06 06:06:59;;;;;;;14.63;7.05;;;9.40;99.90;;;;;;5025622;28;20094;-72
2022/04/06 06:09:24;;;;;;;13.40;6.38;;;9.40;99.90;;;;;;5027907;28;20045;-72
2022/04/06 06:11:50;;;;;;;16.10;6.03;;;9.40;99.90;;;;;;5028238;28;20454;-72
2022/04/06 06:14:15;;;;;;;15.30;6.40;;;9.50;99.90;;;;;;5027329;28;20052;-72
2022/04/06 06:16:41;;;;;;;15.95;6.18;;;9.50;99.90;;;;;;5026329;28;20048;-72
2022/04/06 06:19:07;;;;;;;15.98;6.38;;;9.40;99.90;;;;;;5016334;28;20069;-71
2022/04/06 06:21:32;;;;;;;11.25;4.93;;;9.50;99.90;;;;;;5005914;28;20077;-72
2022/04/06 06:24:05;;;;;;;19.05;6.40;;;9.50;99.90;;;;;;5008270;28;20133;-72
2022/04/06 06:26:31;;;;;;;13.52;5.18;;;9.50;99.90;;;;;;5008413;28;20155;-72
2022/04/06 06:28:57;;;;;;;15.10;5.43;;;9.50;99.90;;;;;;5006285;28;20115;-72
2022/04/06 06:31:23;;;;;;;17.92;5.00;;;9.50;99.90;;;;;;5007279;28;20413;-72
2022/04/06 06:33:49;;;;;;;15.43;4.93;;;9.50;99.90;;;;;;5007725;28;20608;-72
2022/04/06 06:36:15;;;;;;;11.52;4.28;;;9.50;99.90;;;;;;5005366;28;20042;-72
2022/04/06 06:38:41;;;;;;;14.52;4.68;;;9.50;99.90;;;;;;5006678;28;20056;-72
2022/04/06 06:41:06;;;;;;;11.98;4.72;;;9.50;99.90;;;;;;5008109;28;20078;-72
2022/04/06 06:43:35;;;;;;;12.75;4.97;;;9.50;99.90;;;;;;5007948;28;20453;-72
2022/04/06 06:46:01;;;;;;;10.90;4.00;;;9.50;99.90;;;;;;5005848;28;20054;-72
2022/04/06 06:48:26;;;;;;;12.15;3.67;;;9.50;99.90;;;;;;5006213;28;20542;-72
2022/04/06 06:50:52;;;;;;;10.98;4.07;;;9.60;99.90;;;;;;5006374;28;20566;-72
2022/04/06 06:53:17;;;;;;;14.10;4.22;;;9.60;99.90;;;;;;5013797;28;20041;-72
2022/04/06 06:55:43;;;;;;;10.43;4.38;;;9.60;99.90;;;;;;5027398;28;20448;-72
2022/04/06 06:58:08;;;;;;;13.18;4.22;;;9.60;99.90;;;;;;5021171;28;20044;-72
2022/04/06 07:00:34;;;;;;;11.75;4.50;;;9.60;99.90;;;;;;5010094;28;20050;-72
2022/04/06 07:02:59;;;;;;;10.57;4.00;;;9.60;99.90;;;;;;5006886;28;20077;-72
2022/04/06 07:05:25;;;;;;;10.45;3.70;;;9.60;99.90;;;;;;5005965;28;20038;-72
2022/04/06 07:07:53;;;;;;;9.27;3.97;;;9.60;99.90;;;;;;5005868;28;20046;-72
2022/04/06 07:10:19;;;;;;;;;;;9.60;99.90;;;;;;5005784;28;20045;-72
2022/04/06 07:12:45;;;;;;;9.65;4.13;;;9.60;99.90;;;;;;5006630;28;19929;-72
2022/04/06 07:15:10;;;;;;;11.52;4.07;;;9.50;99.90;;;;;;5006604;28;20049;-72
2022/04/06 07:17:36;;;;;;;12.43;4.20;;;9.60;99.90;;;;;;5006528;28;20182;-72
2022/04/06 07:20:03;;;;;;;12.40;5.22;;;9.60;99.90;;;;;;5007857;28;20074;-73
2022/04/06 07:22:28;;;;;;;18.35;5.85;;;9.60;99.90;;;;;;5006379;28;20099;-76
2022/04/06 07:24:54;;;;;;;11.32;4.80;;;9.60;99.90;;;;;;5001402;28;20050;-80
2022/04/06 07:27:21;;;;;;;14.38;5.28;;;9.60;99.90;;;;;;4994700;28;20037;-76
2022/04/06 07:29:47;;;;;;;13.60;4.90;;;9.60;99.90;;;;;;5003295;28;20117;-74
2022/04/06 07:32:12;;;;;;;15.85;5.28;;;9.60;99.90;;;;;;5008186;28;20072;-75
2022/04/06 07:34:38;;;;;;;14.77;5.30;;;9.60;99.90;;;;;;5004216;28;20081;-74
2022/04/06 07:37:04;;;;;;;11.23;5.25;;;9.60;99.90;;;;;;5001987;28;20114;-74
2022/04/06 07:39:30;;;;;;;12.98;5.47;;;9.60;99.90;;;;;;5002802;28;20051;-75
2022/04/06 07:41:56;;;;;;;11.40;5.75;;;9.60;99.90;;;;;;5003523;28;20127;-76
2022/04/06 07:44:22;;;;;;;18.38;6.03;;;9.60;99.90;;;;;;5007021;28;20049;-71
2022/04/06 07:46:48;;;;;;;15.68;6.32;;;9.60;99.90;;;;;;5008267;28;20061;-76
2022/04/06 07:49:14;;;;;;;15.23;6.10;;;9.60;99.90;;;;;;5007870;28;20440;-75
2022/04/06 07:51:40;;;;;;;16.08;6.53;;;9.70;99.90;;;;;;5006707;28;20492;-79
2022/04/06 07:54:05;;;;;;;14.15;6.32;;;9.70;99.90;;;;;;5004547;28;20052;-75
2022/04/06 07:56:31;;;;;;;16.65;7.07;;;9.70;99.90;;;;;;5018914;28;20040;-76
2022/04/06 07:58:57;;;;;;;15.43;7.57;;;9.70;99.90;;;;;;5039905;28;20051;-78
2022/04/06 08:01:22;;;;;;;16.58;7.65;;;9.70;99.90;;;;;;5001818;28;20050;-76
2022/04/06 08:03:48;;;;;;;16.73;7.82;;;9.70;99.90;;;;;;5007015;28;20388;-75
2022/04/06 08:06:13;;;;;;;20.70;8.43;;;9.70;99.90;;;;;;5005720;28;20135;-76
2022/04/06 08:08:39;;;;;;;20.38;8.98;;;9.70;99.90;;;;;;5001762;28;20503;-73
2022/04/06 08:11:08;;;;;;;16.25;8.65;;;9.70;99.90;;;;;;5000830;28;20129;-76
2022/04/06 08:13:34;;;;;;;23.48;9.35;;;9.70;99.90;;;;;;5004693;28;20046;-80
2022/04/06 08:16:00;;;;;;;19.63;10.50;;;9.70;99.90;;;;;;5042534;28;20072;-77
2022/04/06 08:18:29;;;;;;;17.38;9.02;;;9.70;99.90;;;;;;5006978;28;20366;-76
2022/04/06 08:20:54;;;;;;;16.50;9.60;;;9.70;99.90;;;;;;5009867;28;20048;-76
2022/04/06 08:23:21;;;;;;;18.13;9.77;;;9.80;99.90;;;;;;5016975;28;20049;-75
2022/04/06 08:25:46;;;;;;;20.27;10.10;;;9.80;99.90;;;;;;4994959;28;20121;-75
2022/04/06 08:28:12;;;;;;;19.83;11.10;;;9.80;99.90;;;;;;5053799;28;20099;-76
2022/04/06 08:30:42;;;;;;;20.58;10.82;;;9.80;99.90;;;;;;5014123;28;20106;-73
2022/04/06 08:33:10;;;;;;;16.77;10.25;;;9.90;99.90;;;;;;5003440;28;20430;-71
2022/04/06 08:35:36;;;;;;;19.42;10.45;;;9.90;99.90;;;;;;5006578;28;20072;-72
2022/04/06 08:38:03;;;;;;;20.73;11.32;;;9.90;99.90;;;;;;5010022;28;20042;-74
2022/04/06 08:40:32;;;;;;;17.98;9.30;;;10.00;99.90;;;;;;5010592;28;20488;-74
2022/04/06 08:42:58;;;;;;;19.00;9.68;;;10.00;99.90;;;;;;5009100;28;20128;-74
2022/04/06 08:45:28;;;;;;;19.75;10.40;;;10.00;99.90;;;;;;5009756;28;20053;-73
2022/04/06 08:47:57;;;;;;;18.15;10.02;;;10.00;99.90;;;;;;5017458;28;20087;-72
2022/04/06 08:50:26;;;;;;;18.02;9.43;;;10.00;99.90;;;;;;5008360;28;20041;-73
2022/04/06 08:52:55;;;;;;;20.67;9.75;;;10.00;99.90;;;;;;5010314;28;20057;-70
2022/04/06 08:55:20;;;;;;;18.30;8.68;;;10.00;99.90;;;;;;5018190;28;20078;-70
2022/04/06 08:57:46;;;;;;;16.95;8.73;;;10.10;99.90;;;;;;5008686;28;20167;-70
2022/04/06 09:00:15;;;;;;;17.70;8.45;;;10.10;99.90;;;;;;5010081;28;20087;-76
2022/04/06 09:02:41;;;;;;;12.25;7.38;;;10.20;99.90;;;;;;5005536;28;20053;-73
2022/04/06 09:05:07;;;;;;;17.90;7.43;;;10.40;99.90;;;;;;5098396;28;20055;-74
2022/04/06 09:07:36;;;;;;;15.38;7.20;;;10.50;99.90;;;;;;5059282;28;20045;-72
2022/04/06 09:10:02;;;;;;;15.95;7.05;;;10.50;99.90;;;;;;4995385;28;20044;-72
2022/04/06 09:12:29;;;;;;;12.15;6.05;;;10.60;99.90;;;;;;5009189;28;20121;-73
2022/04/06 09:15:09;;;;;;;16.83;6.72;;;10.60;99.90;;;;;;5009586;28;20034;-74
2022/04/06 09:17:49;;;;;;;12.07;5.40;;;10.60;99.90;;;;;;5011344;28;20472;-71
2022/04/06 09:20:19;;;;;;;11.75;5.35;;;10.60;99.90;;;;;;5023365;28;20125;-73
2022/04/06 09:22:44;;;;;;;11.95;5.00;;;10.50;99.90;;;;;;5027503;28;20052;-73
2022/04/06 09:25:10;;;;;;;11.85;5.22;;;10.50;99.90;;;;;;5047966;28;20046;-73
2022/04/06 09:27:40;;;;;;;9.65;4.72;;;10.50;99.90;;;;;;5028327;28;20050;-74
2022/04/06 09:30:08;;;;;;;13.38;5.03;;;10.50;99.90;;;;;;5001474;28;20038;-73
2022/04/06 09:32:33;;;;;;;13.00;4.65;;;10.50;99.90;;;;;;5007203;28;20134;-75
2022/04/06 09:34:59;;;;;;;12.20;4.50;;;10.50;99.90;;;;;;5006307;28;20080;-79
2022/04/06 09:37:31;;;;;;;13.52;4.82;;;10.60;99.90;;;;;;5005276;28;20078;-78
2022/04/06 09:40:06;;;;;;;9.95;3.92;;;10.50;99.90;;;;;;4991183;28;20077;-78
2022/04/06 09:42:32;;;;;;;10.25;4.50;;;10.50;99.90;;;;;;5005097;28;20054;-78
2022/04/06 09:47:53;;;;;;;8.75;4.30;;;10.50;99.90;;;;;;5006530;28;20110;-75
2022/04/06 09:50:24;;;;;;;10.85;4.45;;;10.50;99.90;;;;;;5006441;28;20057;-75
2022/04/06 09:52:57;;;;;;;11.45;4.32;;;10.50;99.90;;;;;;5008232;28;20136;-72
2022/04/06 09:55:23;;;;;;;11.00;4.88;;;10.50;99.90;;;;;;5007769;28;20119;-76
2022/04/06 09:57:51;;;;;;;11.30;4.47;;;10.50;99.90;;;;;;5002359;28;20046;-79
2022/04/06 10:00:25;;;;;;;9.55;4.72;;;10.50;99.90;;;;;;4998929;28;20873;-79
2022/04/06 10:03:05;;;;;;;9.90;4.72;;;10.50;99.90;;;;;;5002550;28;20500;-78
2022/04/06 10:05:35;;;;;;;12.80;5.20;;;10.50;99.90;;;;;;5007076;28;20050;-82
2022/04/06 10:08:05;;;;;;;11.88;4.75;;;10.50;99.90;;;;;;5005362;28;20054;-81
2022/04/06 10:10:32;;;;;;;8.32;4.95;;;10.50;99.90;;;;;;5007956;28;20042;-80
2022/04/06 10:12:58;;;;;;;8.25;4.57;;;10.50;99.90;;;;;;5007315;28;20331;-82
2022/04/06 10:15:27;;;;;;;8.95;4.50;;;10.50;99.90;;;;;;5012131;28;20042;-77
2022/04/06 10:17:53;;;;;;;9.45;4.90;;;10.50;99.90;;;;;;5010442;28;20393;-84
2022/04/06 10:20:35;;;;;;;10.35;4.45;;;10.40;99.90;;;;;;5005920;28;20438;-81
2022/04/06 10:23:17;;;;;;;10.93;4.97;;;10.50;99.90;;;;;;5007756;28;20494;-79
2022/04/06 10:25:51;;;;;;;12.68;5.30;;;10.50;99.90;;;;;;5007277;28;20038;-80
2022/04/06 10:28:18;;;;;;;12.98;5.30;;;10.50;99.90;;;;;;5005947;28;20045;-77
2022/04/06 10:31:04;;;;;;;;;;;10.60;99.90;;;;;;5008134;28;20046;-80
2022/04/06 10:33:29;;;;;;;9.38;4.90;;;10.50;99.90;;;;;;5008023;28;19929;-82
2022/04/06 10:36:15;;;;;;;12.98;5.70;;;10.60;99.90;;;;;;5007603;28;20045;-81
2022/04/06 10:38:41;;;;;;;12.25;5.30;;;10.60;99.90;;;;;;5012741;28;20050;-78
2022/04/06 10:41:06;;;;;;;14.00;6.53;;;10.60;99.90;;;;;;5005710;28;20088;-82
2022/04/06 10:43:39;;;;;;;11.15;6.05;;;10.60;99.90;;;;;;5007179;28;20045;-80
2022/04/06 10:46:16;;;;;;;10.77;5.72;;;10.60;99.90;;;;;;5018071;28;20553;-81
2022/04/06 10:49:06;;;;;;;14.30;5.78;;;10.60;99.90;;;;;;5006239;28;20493;-78
2022/04/06 10:51:37;;;;;;;11.18;6.10;;;10.60;99.90;;;;;;5015721;28;20049;-78
2022/04/06 10:54:12;;;;;;;14.60;6.25;;;10.70;99.90;;;;;;5109157;28;20145;-81
2022/04/06 10:56:49;;;;;;;11.45;5.95;;;10.70;99.90;;;;;;4997852;28;20061;-78
2022/04/06 10:59:20;;;;;;;9.57;5.90;;;10.60;99.90;;;;;;5006122;28;20086;-77
2022/04/06 11:01:48;;;;;;;13.27;6.60;;;10.60;99.90;;;;;;5005626;28;20045;-75
2022/04/06 11:04:24;;;;;;;11.88;7.10;;;10.60;99.90;;;;;;5004933;28;20068;-75
2022/04/06 11:06:56;;;;;;;14.25;6.95;;;10.60;99.90;;;;;;5007976;28;20115;-73
2022/04/06 11:12:22;;;;;;;12.63;7.07;;;10.60;99.90;;;;;;5005548;28;20046;-72
2022/04/06 11:14:57;;;;;;;10.82;7.28;;;10.50;99.90;;;;;;5009736;28;20098;-72
2022/04/06 11:17:37;;;;;;;11.20;7.38;;;10.50;99.90;;;;;;4995584;28;20058;-74
2022/04/06 11:20:08;;;;;;;12.00;8.20;;;10.60;99.90;;;;;;5001447;28;20417;-75
2022/04/06 11:22:43;;;;;;;14.45;8.95;;;10.50;99.90;;;;;;5005815;28;20093;-75
2022/04/06 11:25:14;;;;;;;14.88;8.98;;;10.50;99.90;;;;;;4991623;28;20057;-75
2022/04/06 11:27:42;;;;;;;17.63;11.38;;;10.40;99.90;;;;;;4994814;28;20051;-73
2022/04/06 11:30:13;;;;;;;20.30;12.40;;;10.40;99.90;;;;;;5013666;28;20070;-73
2022/04/06 11:32:49;;;;;;;19.92;13.73;;;10.30;99.90;;;;;;4998998;28;20057;-71
2022/04/06 11:35:15;;;;;;;23.35;16.35;;;10.30;99.90;;;;;;4993250;28;20073;-72
2022/04/06 11:37:46;;;;;;;22.98;17.88;;;10.30;99.90;;;;;;5017007;28;20049;-73
2022/04/06 11:40:13;;;;;;;27.02;18.40;;;10.20;99.90;;;;;;5005788;28;20046;-73
2022/04/06 11:42:39;;;;;;;22.93;18.07;;;10.20;99.90;;;;;;5012330;28;20077;-71
2022/04/06 11:45:06;;;;;;;22.10;16.75;;;10.10;99.90;;;;;;5007294;28;20313;-71
2022/04/06 11:47:38;;;;;;;21.30;16.40;;;10.10;99.90;;;;;;5009016;28;20050;-71
2022/04/06 11:50:12;;;;;;;20.08;14.95;;;10.20;99.90;;;;;;5003756;28;20053;-79
2022/04/06 11:52:42;;;;;;;24.75;17.25;;;10.20;99.90;;;;;;5003659;28;20126;-73
2022/04/06 11:55:08;;;;;;;23.60;19.05;;;10.20;99.90;;;;;;5006653;28;20128;-73
2022/04/06 11:57:36;;;;;;;24.92;19.08;;;10.30;99.90;;;;;;5004758;28;20120;-76
2022/04/06 12:00:08;;;;;;;24.85;18.27;;;10.30;99.90;;;;;;4999965;28;20053;-79
2022/04/06 12:02:47;;;;;;;21.25;16.73;;;10.30;99.90;;;;;;5007784;28;20065;-79
2022/04/06 12:05:13;;;;;;;22.73;17.20;;;10.40;99.90;;;;;;5000210;28;20042;-77
2022/04/06 12:07:38;;;;;;;17.70;14.93;;;10.40;99.90;;;;;;5002144;28;20048;-73
2022/04/06 12:10:04;;;;;;;17.92;14.98;;;10.40;99.90;;;;;;4995514;28;20049;-79
2022/04/06 12:12:30;;;;;;;17.98;14.57;;;10.40;99.90;;;;;;4990550;28;20050;-77
2022/04/06 12:14:56;;;;;;;17.40;15.25;;;10.40;99.90;;;;;;5000322;28;20480;-72
2022/04/06 12:17:22;;;;;;;17.08;15.13;;;10.40;99.90;;;;;;5016306;28;20424;-74
2022/04/06 12:19:48;;;;;;;17.27;15.07;;;10.50;99.90;;;;;;5013760;28;20042;-75
2022/04/06 12:22:14;;;;;;;18.38;15.30;;;10.60;99.90;;;;;;5005699;28;20056;-83
2022/04/06 12:24:43;;;;;;;15.15;13.48;;;10.60;99.90;;;;;;5005610;28;20038;-82
2022/04/06 12:27:09;;;;;;;16.52;13.38;;;10.80;99.90;;;;;;5004942;28;20129;-76
2022/04/06 12:29:36;;;;;;;14.55;12.57;;;10.90;99.90;;;;;;4988185;28;20129;-76
2022/04/06 12:32:05;;;;;;;15.70;12.15;;;10.90;99.90;;;;;;5004320;28;20049;-77
2022/04/06 12:34:39;;;;;;;14.55;11.55;;;10.90;99.90;;;;;;5002189;28;20046;-74
2022/04/06 12:39:57;;;;;;;14.10;12.25;;;11.00;99.90;;;;;;5004362;28;20050;-77
2022/04/06 12:42:23;;;;;;;14.30;12.32;;;11.10;99.90;;;;;;5022531;28;20134;-77
2022/04/06 12:44:57;;;;;;;15.05;11.68;;;11.10;99.90;;;;;;5005512;28;20136;-77
2022/04/06 12:47:23;;;;;;;13.32;11.50;;;11.20;99.90;;;;;;5024659;28;20058;-78
2022/04/06 12:49:49;;;;;;;12.15;10.70;;;11.20;99.90;;;;;;5004849;28;20038;-74
2022/04/06 12:52:16;;;;;;;11.98;10.30;;;11.20;99.90;;;;;;5004667;28;20042;-72
2022/04/06 12:54:50;;;;;;;11.27;10.05;;;11.20;99.90;;;;;;5012796;28;20042;-73